11:40
Airports
History
Links
Donate
Help keep this website running!
PayPal
Bitcoin
This page is community maintained. The information is intended for PC simulator navigation or reference.
Always use approved charts for navigation.
DE49
JOSEPHS
JOSEPHS (DE49)
Georgetown, Delaware, United States (19947)
(U)
Lat/Lng:38° 38' 15" N / 75° 21' 19" W
38.637499 / -75.355278
Elevation:42'ft / 13mMSL
ID / ICAO:DE49
Runways:1
Longest:15-33
Asphalt 1,481m / 4,858ft
Nearby Weather10:54 GMT 2018-02-20
Nearby weather at KGED, Sussex County located 3.5 nautical miles from DE49
Altimeter: 30.37
Visibility: 9.0 statute miles
Wind: 13 knots (from 230°)
Temp: 16°c / 61°f
Humidity: 87.9%

METAR: KGED 201054Z AUTO 23013G19KT 9SM OVC005 16/14 A3037 RMK AO2 SLP283 T01610144 $

(Powered by phpweather)
Airport Radio Frequencies
UNICOM: 123
Nearby VORs <50NM
Nearby NDBs
Runway 15 / 33
Dimensions:1480.6 x 18.3m 4858' x 60'ft
Surface:Asphalt
Edge Lights:Low intensity
Runway 15 [A]Runway 33 [B]
Heading:143°TH 323°TH
Lat:
Lng:
38° 38' 34.17"N
75° 21' 37.43"W
38° 37' 55.82"N
75° 21' 0.57"W
User Notes and Comments
38° 38' 15" N / 75° 21' 19" W
Distance To
Airport ID:
Nearby Airports
(U) Sussex County 3.5 NM
KGED ( WX ) N 357°
(R) Ockel Farms 7.8 NM
DE23 N 358°
(R) Eagle Crest-hudson 11.6 NM
DE25 NE 34°
4 Owens Field 12.0 NM
DE12 NNW 345°
(R) Huey 12.2 NM
DE14 NW 307°
(R) West Pvt 13.2 NM
DE21 SE 128°
(R) Delmarvair 13.7 NM
6MD8 S 190°
VFR Chart
Flight Planning at SkyVector.com